Time;durP1;ratioP1;P1;durP2;ratioP2;P2;SDS_P1;SDS_P2;PMS_P1;PMS_P2;Temp;Humidity;BMP_temperature;BMP_pressure;BME280_temperature;BME280_humidity;BME280_pressure;Samples;Min_cycle;Max_cycle;Signal;HPM_P1;HPM_P2
2022/01/12 00:00:48;;;;;;;37.50;20.55;;;4.50;99.90;;;;;;5034925;28;20573;-78
2022/01/12 00:03:13;;;;;;;43.08;22.17;;;4.50;99.90;;;;;;5035585;28;20128;-79
2022/01/12 00:05:39;;;;;;;35.55;22.05;;;4.50;99.90;;;;;;5017458;28;20071;-79
2022/01/12 00:08:05;;;;;;;36.63;21.60;;;4.50;99.90;;;;;;5017079;28;20041;-77
2022/01/12 00:10:31;;;;;;;40.85;21.20;;;4.60;99.90;;;;;;5016587;28;20143;-77
2022/01/12 00:12:57;;;;;;;40.35;23.75;;;4.60;99.90;;;;;;5016152;28;20055;-77
2022/01/12 00:15:22;;;;;;;47.33;21.15;;;4.60;99.90;;;;;;5035178;28;20049;-77
2022/01/12 00:17:48;;;;;;;44.60;23.48;;;4.60;99.90;;;;;;5015373;28;20136;-77
2022/01/12 00:20:13;;;;;;;40.78;21.50;;;4.60;99.90;;;;;;5014862;28;20567;-77
2022/01/12 00:22:40;;;;;;;42.38;21.45;;;4.60;99.90;;;;;;5015395;28;20852;-77
2022/01/12 00:33:16;;;;;;;43.50;23.60;;;4.60;99.90;;;;;;5033602;28;20060;-77
2022/01/12 00:35:45;;;;;;;30.13;19.88;;;5.60;99.90;;;;;;5015372;28;20052;-77
2022/01/12 00:38:11;;;;;;;41.60;22.77;;;4.60;99.90;;;;;;5019582;28;20673;-77
2022/01/12 00:40:48;;;;;;;49.83;23.23;;;4.60;99.90;;;;;;5036945;28;20222;-77
2022/01/12 00:43:16;;;;;;;50.40;22.98;;;4.60;99.90;;;;;;4996098;28;20172;-78
2022/01/12 00:45:42;;;;;;;34.33;21.60;;;4.70;99.90;;;;;;4996289;28;20564;-76
2022/01/12 00:48:09;;;;;;;50.40;23.48;;;4.70;99.90;;;;;;4996019;28;20058;-78
2022/01/12 00:50:35;;;;;;;34.30;20.83;;;4.70;99.90;;;;;;4998013;28;20085;-78
2022/01/12 00:53:00;;;;;;;38.60;20.75;;;4.70;99.90;;;;;;4998569;28;20121;-78
2022/01/12 00:55:26;;;;;;;35.53;22.15;;;4.70;99.90;;;;;;4997227;28;20053;-77
2022/01/12 00:57:55;;;;;;;32.58;20.80;;;4.70;99.90;;;;;;4998259;28;20057;-78
2022/01/12 01:00:21;;;;;;;33.80;18.15;;;4.90;99.90;;;;;;4997852;28;20886;-77
2022/01/12 01:02:46;;;;;;;42.78;23.27;;;4.80;99.90;;;;;;4992188;28;20060;-77
2022/01/12 01:05:12;;;;;;;41.33;21.17;;;4.80;99.90;;;;;;4975479;28;20295;-77
2022/01/12 01:07:38;;;;;;;42.55;21.95;;;4.90;99.90;;;;;;4982073;28;20046;-78
2022/01/12 01:10:07;;;;;;;45.72;24.33;;;4.80;99.90;;;;;;4993286;28;20145;-77
2022/01/12 01:12:35;;;;;;;39.08;24.52;;;4.80;99.90;;;;;;4996421;28;20580;-77
2022/01/12 01:15:08;;;;;;;52.25;27.00;;;4.80;99.90;;;;;;4995791;28;20057;-77
2022/01/12 01:25:46;;;;;;;50.08;23.92;;;4.90;99.90;;;;;;4996581;28;20116;-78
2022/01/12 01:28:14;;;;;;;47.50;24.08;;;4.90;99.90;;;;;;4994583;28;20828;-78
2022/01/12 01:30:41;;;;;;;47.80;22.15;;;4.90;99.90;;;;;;4996040;28;20073;-78
2022/01/12 01:33:09;;;;;;;44.67;23.80;;;4.90;99.90;;;;;;4997498;28;20057;-78
2022/01/12 01:35:39;;;;;;;48.78;23.65;;;4.80;99.90;;;;;;4997947;28;20092;-78
2022/01/12 01:38:06;;;;;;;56.47;24.25;;;4.90;99.90;;;;;;4997566;28;20163;-78
2022/01/12 01:40:34;;;;;;;45.70;25.25;;;4.90;99.90;;;;;;4996115;28;20842;-78
2022/01/12 01:53:43;;;;;;;40.83;22.05;;;5.00;99.90;;;;;;5017999;28;20135;-78
2022/01/12 01:56:08;;;;;;;47.83;24.42;;;5.00;99.90;;;;;;5016390;28;20053;-78
2022/01/12 01:58:35;;;;;;;51.30;22.83;;;5.00;99.90;;;;;;5017290;28;20525;-78
2022/01/12 02:01:00;;;;;;;42.42;20.95;;;5.10;99.90;;;;;;5017745;28;20088;-78
2022/01/12 02:03:28;;;;;;;52.60;23.55;;;5.10;99.90;;;;;;5017805;28;20124;-79
2022/01/12 02:05:54;;;;;;;39.65;26.52;;;5.10;99.90;;;;;;5015308;28;20152;-78
2022/01/12 02:08:19;;;;;;;46.22;22.23;;;5.10;99.90;;;;;;5017567;28;20045;-79
2022/01/12 02:10:45;;;;;;;44.95;21.48;;;5.10;99.90;;;;;;5016578;28;20057;-78
2022/01/12 02:13:11;;;;;;;40.60;22.70;;;5.10;99.90;;;;;;5015997;28;20061;-79
2022/01/12 02:15:39;;;;;;;43.22;23.88;;;5.10;99.90;;;;;;5016226;28;20049;-80
2022/01/12 02:18:19;;;;;;;47.85;20.83;;;5.10;99.90;;;;;;5016816;28;20053;-80
2022/01/12 02:40:27;;;;;;;39.33;21.42;;;5.10;99.90;;;;;;5012656;28;20065;-80
2022/01/12 02:50:36;;;;;;;41.63;20.75;;;5.10;99.90;;;;;;5015270;28;20057;-79
2022/01/12 02:50:42;;;;;;;47.58;23.15;;;5.10;99.90;;;;;;5016016;28;20065;-79
2022/01/12 02:51:35;;;;;;;41.13;21.75;;;5.10;99.90;;;;;;5016959;28;20566;-80
2022/01/12 02:54:03;;;;;;;38.47;18.73;;;5.10;99.90;;;;;;5016951;28;20136;-80
2022/01/12 02:56:33;;;;;;;38.20;21.83;;;5.20;99.90;;;;;;5014478;28;20084;-80
2022/01/12 02:59:00;;;;;;;38.75;19.60;;;5.20;99.90;;;;;;5016473;28;20041;-80
2022/01/12 03:03:58;;;;;;;35.40;18.77;;;5.10;99.90;;;;;;5017265;28;20123;-80
2022/01/12 03:06:29;;;;;;;47.20;21.65;;;5.20;99.90;;;;;;5014910;28;20068;-80
2022/01/12 03:08:55;;;;;;;42.38;22.33;;;5.20;99.90;;;;;;5014456;28;20136;-80
2022/01/12 03:11:23;;;;;;;40.53;22.80;;;5.20;99.90;;;;;;5015954;28;20119;-79
2022/01/12 03:13:50;;;;;;;41.40;20.98;;;5.20;99.90;;;;;;5016369;28;20050;-80
2022/01/12 03:16:18;;;;;;;40.47;20.20;;;5.20;99.90;;;;;;5015897;28;20053;-79
2022/01/12 03:18:46;;;;;;;41.33;19.75;;;5.20;99.90;;;;;;5015334;28;20049;-80
2022/01/12 03:21:13;;;;;;;33.83;20.40;;;5.20;99.90;;;;;;5015338;28;20064;-79
2022/01/12 03:23:39;;;;;;;35.83;19.70;;;5.10;99.90;;;;;;5015878;28;20107;-80
2022/01/12 03:26:06;;;;;;;36.20;21.13;;;5.10;99.90;;;;;;5016839;28;20128;-79
2022/01/12 03:28:31;;;;;;;42.15;21.15;;;4.90;99.90;;;;;;5015501;28;20053;-80
2022/01/12 03:31:08;;;;;;;35.35;19.88;;;5.10;99.90;;;;;;5014713;28;20065;-79
2022/01/12 03:33:50;;;;;;;35.63;19.52;;;5.00;99.90;;;;;;5014715;28;20527;-80
2022/01/12 03:36:41;;;;;;;42.70;22.42;;;5.00;99.90;;;;;;5016112;28;20588;-79
2022/01/12 03:39:12;;;;;;;43.10;22.67;;;5.00;99.90;;;;;;5015283;28;20535;-79
2022/01/12 03:41:40;;;;;;;47.72;24.20;;;5.00;99.90;;;;;;5024228;28;20112;-79
2022/01/12 03:44:09;;;;;;;38.50;19.42;;;5.00;99.90;;;;;;5018120;28;20055;-79
2022/01/12 03:46:39;;;;;;;30.38;18.08;;;5.00;99.90;;;;;;5035908;28;20090;-79
2022/01/12 03:49:05;;;;;;;30.60;17.50;;;4.90;99.90;;;;;;5017717;28;20045;-80
2022/01/12 03:51:32;;;;;;;36.53;20.05;;;4.90;99.90;;;;;;5035061;28;20122;-79
2022/01/12 03:53:57;;;;;;;55.08;24.80;;;4.80;99.90;;;;;;5017802;28;20114;-77
2022/01/12 03:56:23;;;;;;;51.65;20.55;;;4.80;99.90;;;;;;5018634;28;20675;-78
2022/01/12 03:58:49;;;;;;;53.05;21.73;;;4.80;99.90;;;;;;5035473;28;20060;-77
2022/01/12 04:01:14;;;;;;;61.03;23.02;;;4.70;99.90;;;;;;5017288;28;20053;-78
2022/01/12 04:03:44;;;;;;;117.35;28.77;;;4.70;99.90;;;;;;5034884;28;20049;-78
2022/01/12 04:08:54;;;;;;;101.03;24.20;;;4.70;99.90;;;;;;5035899;28;20052;-77
2022/01/12 04:11:20;;;;;;;104.32;26.42;;;4.60;99.90;;;;;;5018704;28;20078;-78
2022/01/12 04:13:48;;;;;;;68.53;23.20;;;4.60;99.90;;;;;;5021693;28;20061;-79
2022/01/12 04:16:14;;;;;;;185.25;32.72;;;4.60;99.90;;;;;;5021599;28;20059;-78
2022/01/12 04:18:40;;;;;;;139.60;28.25;;;4.60;99.90;;;;;;5021534;28;20060;-79
2022/01/12 04:21:08;;;;;;;51.15;17.05;;;4.50;99.90;;;;;;5038803;28;20049;-80
2022/01/12 04:23:35;;;;;;;94.30;23.20;;;4.50;99.90;;;;;;5021381;28;20363;-78
2022/01/12 04:26:08;;;;;;;87.63;21.40;;;4.50;99.90;;;;;;5020953;28;20045;-78
2022/01/12 04:28:35;;;;;;;112.38;23.42;;;4.40;99.90;;;;;;5039844;28;20045;-78
2022/01/12 04:31:00;;;;;;;80.07;20.80;;;4.40;99.90;;;;;;5021513;28;20136;-78
2022/01/12 04:33:28;;;;;;;100.95;21.40;;;4.50;99.90;;;;;;5021415;28;20045;-78
2022/01/12 04:35:54;;;;;;;102.97;22.10;;;4.40;99.90;;;;;;5021392;28;20100;-78
2022/01/12 04:38:27;;;;;;;89.00;21.25;;;4.40;99.90;;;;;;5020675;28;20110;-78
2022/01/12 04:40:53;;;;;;;133.40;26.20;;;4.40;99.90;;;;;;5038217;28;20052;-78
2022/01/12 04:43:21;;;;;;;55.15;19.67;;;4.30;99.90;;;;;;5021012;28;20152;-79
2022/01/12 04:50:42;;;;;;;61.20;15.68;;;4.30;99.90;;;;;;5037189;28;20049;-79
2022/01/12 04:53:08;;;;;;;72.45;16.00;;;4.20;99.90;;;;;;5018723;28;20068;-78
2022/01/12 04:55:34;;;;;;;77.28;19.35;;;4.30;99.90;;;;;;5018249;28;20194;-78
2022/01/12 04:58:00;;;;;;;63.28;15.65;;;4.30;99.90;;;;;;5036888;28;20527;-78
2022/01/12 05:00:26;;;;;;;66.20;15.45;;;4.20;99.90;;;;;;5035096;28;20045;-78
2022/01/12 05:13:36;;;;;;;36.78;13.32;;;4.20;99.90;;;;;;5034887;28;20060;-78
2022/01/12 05:16:02;;;;;;;25.77;10.52;;;4.20;99.90;;;;;;5019615;28;20064;-78
2022/01/12 05:18:28;;;;;;;18.95;10.63;;;4.20;99.90;;;;;;5021101;28;20045;-78
2022/01/12 05:20:54;;;;;;;27.23;11.65;;;4.20;99.90;;;;;;5019478;28;20075;-78
2022/01/12 05:23:20;;;;;;;38.35;11.75;;;4.20;99.90;;;;;;5017474;28;20049;-78
2022/01/12 05:25:46;;;;;;;31.15;12.52;;;4.30;99.90;;;;;;5018117;28;20139;-78
2022/01/12 05:28:13;;;;;;;25.02;11.90;;;4.30;99.90;;;;;;5036087;28;20044;-78
2022/01/12 05:30:39;;;;;;;45.25;12.43;;;4.30;99.90;;;;;;5017163;28;20037;-78
2022/01/12 05:33:04;;;;;;;48.72;12.00;;;4.20;99.90;;;;;;5018130;28;20095;-78
2022/01/12 05:35:34;;;;;;;21.90;10.70;;;4.20;99.90;;;;;;5035489;28;20098;-79
2022/01/12 05:38:02;;;;;;;34.45;11.02;;;4.20;99.90;;;;;;5017501;28;20086;-78
2022/01/12 05:40:28;;;;;;;38.80;11.38;;;4.20;99.90;;;;;;5017761;28;20703;-78
2022/01/12 05:42:55;;;;;;;27.17;9.88;;;4.10;99.90;;;;;;5014117;28;20351;-78
2022/01/12 05:45:22;;;;;;;50.15;11.95;;;4.10;99.90;;;;;;5013700;28;20065;-77
2022/01/12 05:50:15;;;;;;;28.05;9.63;;;3.90;99.90;;;;;;5015348;28;20064;-79
2022/01/12 05:52:41;;;;;;;44.10;12.40;;;3.90;99.90;;;;;;5013888;28;20056;-78
2022/01/12 05:55:09;;;;;;;50.05;11.65;;;3.80;99.90;;;;;;5015606;28;20081;-78
2022/01/12 05:57:35;;;;;;;47.75;12.05;;;3.70;99.90;;;;;;5016166;28;20045;-78
2022/01/12 06:00:08;;;;;;;29.52;11.50;;;3.70;99.90;;;;;;5016669;28;20049;-78
2022/01/12 06:02:34;;;;;;;49.50;12.15;;;3.60;99.90;;;;;;5018472;28;20077;-79
2022/01/12 06:05:00;;;;;;;23.60;9.00;;;3.60;99.90;;;;;;5016027;28;20053;-77
2022/01/12 06:07:26;;;;;;;44.00;11.10;;;3.60;99.90;;;;;;5015779;28;20049;-77
2022/01/12 06:09:51;;;;;;;30.30;9.43;;;3.50;99.90;;;;;;5015487;28;20049;-78
2022/01/12 06:12:17;;;;;;;29.17;10.30;;;3.50;99.90;;;;;;5016963;28;20056;-77
2022/01/12 06:14:43;;;;;;;18.08;9.73;;;3.50;99.90;;;;;;5017779;28;20132;-77
2022/01/12 06:17:09;;;;;;;18.23;9.27;;;3.50;99.90;;;;;;5016159;28;20463;-78
2022/01/12 06:19:35;;;;;;;24.58;9.88;;;3.50;99.90;;;;;;5017176;28;20038;-78
2022/01/12 06:22:01;;;;;;;30.58;10.40;;;3.40;99.90;;;;;;5017658;28;20060;-77
2022/01/12 06:24:28;;;;;;;24.17;9.82;;;3.40;99.90;;;;;;5018230;28;20056;-78
2022/01/12 06:26:54;;;;;;;18.15;8.43;;;3.40;99.90;;;;;;5019550;28;20053;-78
2022/01/12 06:31:49;;;;;;;16.33;10.00;;;3.30;99.90;;;;;;5020089;28;20064;-79
2022/01/12 06:34:15;;;;;;;33.92;10.07;;;3.30;99.90;;;;;;5017366;28;20202;-77
2022/01/12 06:36:41;;;;;;;17.77;8.30;;;3.30;99.90;;;;;;5018534;28;20485;-77
2022/01/12 06:39:10;;;;;;;20.17;8.70;;;3.30;99.90;;;;;;5019624;28;20081;-77
2022/01/12 06:41:40;;;;;;;20.23;10.18;;;3.30;99.90;;;;;;5018119;28;20108;-77
2022/01/12 06:44:07;;;;;;;19.70;9.55;;;3.30;99.90;;;;;;5018805;28;20107;-77
2022/01/12 06:46:34;;;;;;;19.35;9.32;;;3.30;99.90;;;;;;5017753;28;20567;-78
2022/01/12 06:49:01;;;;;;;21.60;8.07;;;3.20;99.90;;;;;;5019751;28;20087;-78
2022/01/12 06:51:26;;;;;;;18.98;9.60;;;3.30;99.90;;;;;;5019322;28;20091;-76
2022/01/12 06:53:55;;;;;;;25.42;10.45;;;3.30;99.90;;;;;;5017573;28;20096;-77
2022/01/12 06:56:20;;;;;;;28.35;10.23;;;3.30;99.90;;;;;;5017837;28;20049;-76
2022/01/12 06:58:47;;;;;;;25.30;10.30;;;3.30;99.90;;;;;;5016993;28;20399;-77
2022/01/12 07:01:12;;;;;;;9.20;7.28;;;3.30;99.90;;;;;;5017103;28;20087;-77
2022/01/12 07:03:38;;;;;;;23.85;9.07;;;3.30;99.90;;;;;;5019015;28;20144;-77
2022/01/12 07:06:04;;;;;;;50.70;11.80;;;3.20;99.90;;;;;;5017409;28;20042;-77
2022/01/12 07:08:32;;;;;;;17.60;9.23;;;3.30;99.90;;;;;;5017596;28;20496;-77
2022/01/12 07:10:58;;;;;;;25.00;9.07;;;3.30;99.90;;;;;;5017156;28;20057;-77
2022/01/12 07:13:23;;;;;;;36.60;10.55;;;3.30;99.90;;;;;;5017989;28;20055;-78
2022/01/12 07:15:49;;;;;;;27.35;8.18;;;3.30;99.90;;;;;;5017900;28;20057;-78
2022/01/12 07:18:15;;;;;;;18.85;8.75;;;3.30;99.90;;;;;;5017874;28;20045;-78
2022/01/12 07:20:40;;;;;;;49.47;10.75;;;3.30;99.90;;;;;;5017495;28;20405;-77
2022/01/12 07:23:06;;;;;;;42.78;11.27;;;3.30;99.90;;;;;;5016941;28;20367;-78
2022/01/12 07:25:31;;;;;;;20.05;8.85;;;3.40;99.90;;;;;;5018659;28;20041;-78
2022/01/12 07:27:57;;;;;;;34.55;11.63;;;3.40;99.90;;;;;;5019049;28;20049;-78
2022/01/12 07:30:24;;;;;;;34.72;9.90;;;3.40;99.90;;;;;;5017205;28;20408;-78
2022/01/12 07:32:50;;;;;;;36.60;12.73;;;3.40;99.90;;;;;;5017862;28;20051;-78
2022/01/12 07:35:16;;;;;;;22.33;9.05;;;3.40;99.90;;;;;;5018586;28;20061;-78
2022/01/12 07:37:42;;;;;;;61.22;11.85;;;3.40;99.90;;;;;;5018017;28;20056;-78
2022/01/12 07:40:08;;;;;;;32.28;8.75;;;3.40;99.90;;;;;;5016752;28;20152;-78
2022/01/12 07:42:34;;;;;;;19.90;8.57;;;3.50;99.90;;;;;;5033764;28;20164;-78
2022/01/12 07:45:01;;;;;;;42.70;10.75;;;3.50;99.90;;;;;;5019668;28;20045;-78
2022/01/12 07:47:28;;;;;;;71.10;11.20;;;3.50;99.90;;;;;;5019457;28;20060;-78
2022/01/12 07:49:54;;;;;;;45.17;13.18;;;3.60;99.90;;;;;;5017835;28;20057;-79
2022/01/12 07:52:20;;;;;;;45.00;9.63;;;3.50;99.90;;;;;;5016375;28;20052;-79
2022/01/12 07:54:52;;;;;;;36.97;8.50;;;3.60;99.90;;;;;;4342734;28;10000455;-78
2022/01/12 07:57:18;;;;;;;71.50;12.33;;;3.60;99.90;;;;;;5017889;28;20049;-78
2022/01/12 07:59:45;;;;;;;47.58;9.55;;;3.60;99.90;;;;;;5017678;28;20049;-79
2022/01/12 08:02:11;;;;;;;47.45;10.63;;;3.50;99.90;;;;;;5017429;28;20049;-78
2022/01/12 08:04:40;;;;;;;23.65;6.95;;;3.60;99.90;;;;;;5033434;28;20045;-78
2022/01/12 08:07:07;;;;;;;51.92;9.00;;;3.70;99.90;;;;;;5015297;28;20631;-78
2022/01/12 08:09:33;;;;;;;21.15;6.72;;;3.60;99.90;;;;;;5015417;28;20045;-78
2022/01/12 08:11:59;;;;;;;22.38;7.03;;;3.70;99.90;;;;;;5031526;28;20095;-78
2022/01/12 08:14:24;;;;;;;26.60;6.55;;;3.70;99.90;;;;;;5015000;28;20080;-78
2022/01/12 08:16:50;;;;;;;14.05;6.55;;;3.70;99.90;;;;;;5013978;28;20681;-78
2022/01/12 08:19:18;;;;;;;23.95;6.30;;;3.70;99.90;;;;;;5030647;28;20924;-78
2022/01/12 08:21:44;;;;;;;25.23;6.60;;;3.70;99.90;;;;;;5030787;28;20044;-78
2022/01/12 08:24:11;;;;;;;27.08;6.55;;;3.70;99.90;;;;;;5012838;28;20048;-78
2022/01/12 08:26:37;;;;;;;22.70;6.97;;;3.80;99.90;;;;;;5013180;28;20846;-78
2022/01/12 08:29:03;;;;;;;23.17;7.10;;;3.80;99.90;;;;;;5013508;28;20045;-78
2022/01/12 08:31:29;;;;;;;19.70;5.93;;;3.80;99.90;;;;;;5031223;28;20731;-78
2022/01/12 08:33:55;;;;;;;38.00;7.75;;;3.80;99.90;;;;;;5013516;28;20041;-77
2022/01/12 08:36:20;;;;;;;38.53;8.88;;;3.80;99.90;;;;;;5012993;28;20162;-78
2022/01/12 08:38:46;;;;;;;35.25;7.45;;;3.90;99.90;;;;;;5013724;28;20463;-78
2022/01/12 08:41:12;;;;;;;37.88;8.35;;;3.80;99.90;;;;;;5012682;28;20852;-78
2022/01/12 08:43:38;;;;;;;26.55;6.25;;;3.90;99.90;;;;;;5012735;28;20411;-78
2022/01/12 08:46:03;;;;;;;32.00;8.20;;;3.90;99.90;;;;;;5012971;28;20245;-79
2022/01/12 08:48:29;;;;;;;38.55;8.07;;;3.80;99.90;;;;;;5030730;28;20063;-78
2022/01/12 08:50:55;;;;;;;36.35;7.07;;;3.90;99.90;;;;;;5013402;28;20049;-78
2022/01/12 08:53:20;;;;;;;38.03;9.27;;;3.90;99.90;;;;;;5030164;28;20041;-78
2022/01/12 08:55:46;;;;;;;34.20;8.45;;;3.90;99.90;;;;;;5012829;28;20053;-78
2022/01/12 08:58:12;;;;;;;43.97;8.30;;;4.00;99.90;;;;;;5033949;28;20052;-78
2022/01/12 09:00:43;;;;;;;48.56;8.44;;;4.00;99.90;;;;;;4875497;28;10000847;-79
2022/01/12 09:03:09;;;;;;;28.13;7.20;;;4.00;99.90;;;;;;5017533;28;20250;-83
2022/01/12 09:05:34;;;;;;;32.05;6.15;;;4.10;99.90;;;;;;5018295;28;20052;-77
2022/01/12 09:08:00;;;;;;;40.17;6.75;;;4.10;99.90;;;;;;5020556;28;20559;-78
2022/01/12 09:10:26;;;;;;;27.60;6.25;;;4.20;99.90;;;;;;5023292;28;20060;-78
2022/01/12 09:12:51;;;;;;;23.73;6.35;;;4.20;99.90;;;;;;5021598;28;20037;-80
2022/01/12 09:15:22;;;;;;;20.83;6.80;;;4.30;99.90;;;;;;5021852;28;20055;-79
2022/01/12 09:17:48;;;;;;;20.15;5.22;;;4.40;99.90;;;;;;5040401;28;20067;-78
2022/01/12 09:20:14;;;;;;;46.72;8.48;;;4.40;99.90;;;;;;5041265;28;20052;-79
2022/01/12 09:22:40;;;;;;;30.08;8.75;;;4.50;99.90;;;;;;5040259;28;20049;-79
2022/01/12 09:25:07;;;;;;;32.08;8.90;;;4.50;99.90;;;;;;5041301;28;20049;-79
2022/01/12 09:27:33;;;;;;;23.40;5.90;;;4.60;99.90;;;;;;5022033;28;20500;-78
2022/01/12 09:29:58;;;;;;;18.95;7.03;;;4.60;99.90;;;;;;5021440;28;20163;-78
2022/01/12 09:32:24;;;;;;;25.52;6.40;;;4.70;99.90;;;;;;5022053;28;20072;-78
2022/01/12 09:34:49;;;;;;;32.95;6.75;;;4.70;99.90;;;;;;5023206;28;20056;-78
2022/01/12 09:37:15;;;;;;;24.77;7.38;;;4.80;99.90;;;;;;5040128;28;20049;-79
2022/01/12 09:39:41;;;;;;;29.75;7.50;;;4.80;99.90;;;;;;5021342;28;20198;-79
2022/01/12 09:42:07;;;;;;;38.28;8.18;;;4.90;99.90;;;;;;5017103;28;20057;-79
2022/01/12 09:44:35;;;;;;;24.50;5.88;;;4.90;99.90;;;;;;5018944;28;20777;-79
2022/01/12 09:47:02;;;;;;;47.42;7.93;;;5.00;99.90;;;;;;5017537;28;20041;-79
2022/01/12 09:49:29;;;;;;;46.78;7.93;;;5.00;99.90;;;;;;5017452;28;20049;-79
2022/01/12 09:51:55;;;;;;;43.67;7.32;;;5.00;99.90;;;;;;5019199;28;20846;-79
2022/01/12 09:54:21;;;;;;;58.78;9.15;;;5.10;99.90;;;;;;5017830;28;20049;-79
2022/01/12 09:56:48;;;;;;;70.88;8.65;;;5.10;99.90;;;;;;5018795;28;20132;-79
2022/01/12 09:59:14;;;;;;;50.33;7.25;;;5.10;99.90;;;;;;5019281;28;20461;-79
2022/01/12 10:01:45;;;;;;;33.55;6.72;;;5.10;99.90;;;;;;5020393;28;20111;-78
2022/01/12 10:04:17;;;;;;;40.58;6.00;;;5.20;99.90;;;;;;5019154;28;20052;-79
2022/01/12 10:06:46;;;;;;;43.38;6.75;;;5.20;99.90;;;;;;5021115;28;20088;-78
2022/01/12 10:09:15;;;;;;;42.85;6.30;;;5.30;99.90;;;;;;5017857;28;20046;-78
2022/01/12 10:12:00;;;;;;;18.45;4.55;;;5.30;99.90;;;;;;5017688;28;20041;-79
2022/01/12 10:14:41;;;;;;;30.95;5.88;;;5.30;99.90;;;;;;5018403;28;20053;-78
2022/01/12 10:17:08;;;;;;;31.25;6.13;;;5.40;99.90;;;;;;5018800;28;20058;-78
2022/01/12 10:19:34;;;;;;;15.25;3.65;;;5.00;99.90;;;;;;5018318;28;20053;-79
2022/01/12 10:22:02;;;;;;;19.00;5.25;;;5.50;99.90;;;;;;5017911;28;20076;-78
2022/01/12 10:24:29;;;;;;;11.77;3.42;;;5.50;99.90;;;;;;5017857;28;20054;-78
2022/01/12 10:26:55;;;;;;;39.80;6.18;;;5.60;99.90;;;;;;5019873;28;20050;-79
2022/01/12 10:29:24;;;;;;;25.65;6.05;;;5.60;99.90;;;;;;5019803;28;20057;-78
2022/01/12 10:32:04;;;;;;;16.70;3.42;;;5.60;99.90;;;;;;5017046;28;20076;-78
2022/01/12 10:34:35;;;;;;;15.57;4.82;;;5.70;99.90;;;;;;5019436;28;20041;-78
2022/01/12 10:37:06;;;;;;;12.30;3.72;;;5.70;99.90;;;;;;5019311;28;20080;-78
2022/01/12 10:39:32;;;;;;;26.80;5.75;;;5.70;99.90;;;;;;5018822;28;20660;-78
2022/01/12 10:42:03;;;;;;;21.33;5.30;;;5.70;99.90;;;;;;5029906;28;20155;-78
2022/01/12 10:44:37;;;;;;;24.23;4.88;;;5.80;99.90;;;;;;5021471;28;20781;-78
2022/01/12 10:47:12;;;;;;;16.45;5.18;;;5.80;99.90;;;;;;5020515;28;20689;-79
2022/01/12 10:49:40;;;;;;;17.70;4.60;;;5.80;99.90;;;;;;5021208;28;20571;-78
2022/01/12 10:52:08;;;;;;;22.35;5.43;;;5.90;99.90;;;;;;5020704;28;20061;-78
2022/01/12 10:54:46;;;;;;;16.75;5.70;;;5.90;99.90;;;;;;5038568;28;20045;-78
2022/01/12 10:57:26;;;;;;;20.52;5.88;;;5.90;99.90;;;;;;5020329;28;20147;-78
2022/01/12 11:00:05;;;;;;;38.42;7.63;;;6.00;99.90;;;;;;5038378;28;20049;-78
2022/01/12 11:02:32;;;;;;;46.97;7.72;;;5.90;99.90;;;;;;5020931;28;20053;-78
2022/01/12 11:04:59;;;;;;;26.88;6.05;;;5.90;99.90;;;;;;5039130;28;20080;-78
2022/01/12 11:07:26;;;;;;;15.95;5.50;;;5.90;99.90;;;;;;5038634;28;20088;-78
2022/01/12 11:09:56;;;;;;;22.05;6.00;;;6.00;99.90;;;;;;5021102;28;20053;-79
2022/01/12 11:12:22;;;;;;;24.35;6.53;;;6.00;99.90;;;;;;5021169;28;20056;-78
2022/01/12 11:14:48;;;;;;;18.55;5.90;;;6.00;99.90;;;;;;5020609;28;20048;-78
2022/01/12 11:17:13;;;;;;;22.35;7.05;;;6.00;99.90;;;;;;5039003;28;20044;-78
2022/01/12 11:19:44;;;;;;;20.55;5.07;;;6.10;99.90;;;;;;5020804;28;20167;-77
2022/01/12 11:22:25;;;;;;;20.83;6.22;;;6.10;99.90;;;;;;5020408;28;20053;-78
2022/01/12 11:24:53;;;;;;;19.90;6.60;;;6.20;99.90;;;;;;5021454;28;20049;-78
2022/01/12 11:27:23;;;;;;;30.13;6.63;;;6.20;99.90;;;;;;5021261;28;20829;-79
2022/01/12 11:29:48;;;;;;;25.15;6.45;;;6.30;99.90;;;;;;5020420;28;20041;-78
2022/01/12 11:32:22;;;;;;;26.38;6.35;;;6.30;99.90;;;;;;5038614;28;20126;-78
2022/01/12 11:35:02;;;;;;;20.05;6.05;;;6.40;99.90;;;;;;5020376;28;20049;-78
2022/01/12 11:37:28;;;;;;;12.10;5.65;;;6.50;99.90;;;;;;5020570;28;20053;-78
2022/01/12 11:40:04;;;;;;;33.40;6.95;;;6.60;99.90;;;;;;5038201;28;20048;-78
2022/01/12 11:42:37;;;;;;;14.57;5.95;;;6.60;99.90;;;;;;5019242;28;20134;-78
2022/01/12 11:45:04;;;;;;;24.35;7.00;;;6.70;99.90;;;;;;5020027;28;20048;-78
2022/01/12 11:47:31;;;;;;;10.00;5.50;;;6.70;99.90;;;;;;5037808;28;20095;-78
2022/01/12 11:49:57;;;;;;;9.75;4.65;;;6.70;99.90;;;;;;5037674;28;20052;-78
2022/01/12 11:52:26;;;;;;;16.95;5.97;;;6.70;99.90;;;;;;5037701;28;20493;-78
2022/01/12 11:55:13;;;;;;;13.18;4.97;;;6.70;99.90;;;;;;5020879;28;20053;-78
2022/01/12 11:57:42;;;;;;;12.07;5.80;;;6.70;99.90;;;;;;5037020;28;20052;-78
2022/01/12 12:00:12;;;;;;;18.08;6.25;;;6.70;99.90;;;;;;5038183;28;20056;-78
2022/01/12 12:02:41;;;;;;;12.43;5.15;;;6.70;99.90;;;;;;5020830;28;20750;-78
2022/01/12 12:05:08;;;;;;;12.73;5.93;;;6.70;99.90;;;;;;5019371;28;20527;-78
2022/01/12 12:07:43;;;;;;;14.85;7.68;;;6.70;99.90;;;;;;5021240;28;20053;-78
2022/01/12 12:10:11;;;;;;;13.18;5.38;;;6.80;99.90;;;;;;5037908;28;20057;-78
2022/01/12 12:12:37;;;;;;;10.40;5.30;;;6.80;99.90;;;;;;5038999;28;20060;-78
2022/01/12 12:15:07;;;;;;;7.53;4.32;;;6.90;99.90;;;;;;5038040;28;20063;-78
2022/01/12 12:17:35;;;;;;;18.95;5.85;;;6.90;99.90;;;;;;5019947;28;20080;-78
2022/01/12 12:20:03;;;;;;;11.93;6.00;;;6.90;99.90;;;;;;5037725;28;20071;-78
2022/01/12 12:22:31;;;;;;;19.80;5.72;;;6.90;99.90;;;;;;5020268;28;20044;-78
2022/01/12 12:25:08;;;;;;;13.77;5.90;;;6.70;99.90;;;;;;5020028;28;20149;-78
2022/01/12 12:27:36;;;;;;;9.88;5.22;;;6.80;99.90;;;;;;5020630;28;20061;-78
2022/01/12 12:30:08;;;;;;;25.15;6.50;;;6.80;99.90;;;;;;5037960;28;20059;-78
2022/01/12 12:32:37;;;;;;;16.58;5.55;;;6.80;99.90;;;;;;5039199;28;20056;-78
2022/01/12 12:35:17;;;;;;;10.35;5.53;;;6.80;99.90;;;;;;5041437;28;20048;-78
2022/01/12 12:37:48;;;;;;;11.52;5.40;;;6.80;99.90;;;;;;5023354;28;20190;-78
2022/01/12 12:40:19;;;;;;;16.88;6.15;;;6.80;99.90;;;;;;5040464;28;20798;-78
2022/01/12 12:43:05;;;;;;;11.48;6.68;;;6.90;99.90;;;;;;5022154;28;20144;-78
2022/01/12 12:45:38;;;;;;;10.65;5.32;;;6.90;99.90;;;;;;5040073;28;20110;-78
2022/01/12 12:48:05;;;;;;;12.48;6.07;;;7.00;99.90;;;;;;5019695;28;20056;-79
2022/01/12 12:50:32;;;;;;;12.13;6.28;;;6.90;99.90;;;;;;5019771;28;20550;-78
2022/01/12 12:52:58;;;;;;;9.57;5.95;;;6.90;99.90;;;;;;5019744;28;20068;-81
2022/01/12 12:55:24;;;;;;;14.82;6.85;;;6.90;99.90;;;;;;5037729;28;20480;-78
2022/01/12 12:57:53;;;;;;;9.20;5.72;;;6.90;99.90;;;;;;5037512;28;20052;-78
2022/01/12 13:00:23;;;;;;;11.05;6.32;;;6.90;99.90;;;;;;5019177;28;20087;-79
2022/01/12 13:02:54;;;;;;;15.02;7.18;;;7.00;99.90;;;;;;5038720;28;20053;-79
2022/01/12 13:05:24;;;;;;;12.63;6.13;;;7.00;99.90;;;;;;5038364;28;20049;-79
2022/01/12 13:07:50;;;;;;;13.05;6.18;;;7.10;99.90;;;;;;5019092;28;20496;-78
2022/01/12 13:10:18;;;;;;;14.98;7.18;;;7.10;99.90;;;;;;5037780;28;20149;-79
2022/01/12 13:12:47;;;;;;;14.13;7.22;;;7.20;99.90;;;;;;5037247;28;20037;-79
2022/01/12 13:15:22;;;;;;;12.13;6.82;;;7.20;99.90;;;;;;5018843;28;20182;-78
2022/01/12 13:17:48;;;;;;;13.05;7.25;;;7.20;99.90;;;;;;5020106;28;20048;-79
2022/01/12 13:23:04;;;;;;;14.55;7.45;;;7.20;99.90;;;;;;5018916;28;20468;-79
2022/01/12 13:25:30;;;;;;;14.82;7.88;;;7.20;99.90;;;;;;5037121;28;20763;-79
2022/01/12 13:27:56;;;;;;;12.75;8.38;;;7.20;99.90;;;;;;5019274;28;20135;-79
2022/01/12 13:30:28;;;;;;;14.02;7.43;;;7.30;99.90;;;;;;5019661;28;20059;-79
2022/01/12 13:32:55;;;;;;;14.65;7.70;;;7.30;99.90;;;;;;5038006;28;20045;-79
2022/01/12 13:35:30;;;;;;;11.68;7.20;;;7.20;99.90;;;;;;5018906;28;20522;-79
2022/01/12 13:37:59;;;;;;;8.70;6.75;;;7.20;99.90;;;;;;5038213;28;20084;-79
2022/01/12 13:40:35;;;;;;;12.45;7.38;;;7.10;99.90;;;;;;5019362;28;20049;-78
2022/01/12 13:43:02;;;;;;;10.20;7.65;;;7.00;99.90;;;;;;5016541;28;20488;-78
2022/01/12 13:45:38;;;;;;;18.17;8.70;;;7.10;99.90;;;;;;5017067;28;20107;-79
2022/01/12 13:48:12;;;;;;;10.07;6.20;;;7.10;99.90;;;;;;5016863;28;20504;-79
2022/01/12 13:50:40;;;;;;;13.90;6.93;;;7.00;99.90;;;;;;5016318;28;20053;-79
2022/01/12 13:53:06;;;;;;;9.43;5.28;;;7.00;99.90;;;;;;5017125;28;20060;-79
2022/01/12 13:55:33;;;;;;;14.30;8.75;;;7.00;99.90;;;;;;5016728;28;20072;-79
2022/01/12 13:58:04;;;;;;;14.40;6.63;;;7.00;99.90;;;;;;5017763;28;20744;-78
2022/01/12 14:00:31;;;;;;;9.55;5.78;;;6.90;99.90;;;;;;5018527;28;20559;-78
2022/01/12 14:02:57;;;;;;;15.13;7.00;;;6.90;99.90;;;;;;5033041;28;20111;-78
2022/01/12 14:05:38;;;;;;;17.75;6.32;;;6.70;99.90;;;;;;5017835;28;20041;-78